sensor_id;sensor_type;location;lat;lon;timestamp;pressure;altitude;pressure_sealevel;temperature;humidity
75617;BME280;64200;55.426;37.758;2023-09-30T00:02:56;99730.25;;;15.15;65.91
75617;BME280;64200;55.426;37.758;2023-09-30T00:07:56;99727.59;;;15.05;66.62
75617;BME280;64200;55.426;37.758;2023-09-30T00:12:57;99723.47;;;15.01;66.63
75617;BME280;64200;55.426;37.758;2023-09-30T00:17:59;99730.81;;;14.92;67.04
75617;BME280;64200;55.426;37.758;2023-09-30T00:22:59;99729.97;;;14.86;67.22
75617;BME280;64200;55.426;37.758;2023-09-30T00:28:00;99731.31;;;14.91;67.03
75617;BME280;64200;55.426;37.758;2023-09-30T00:33:00;99732.16;;;14.77;67.36
75617;BME280;64200;55.426;37.758;2023-09-30T00:38:01;99722.13;;;14.70;67.55
75617;BME280;64200;55.426;37.758;2023-09-30T00:43:01;99715.06;;;14.59;67.95
75617;BME280;64200;55.426;37.758;2023-09-30T00:48:02;99722.72;;;14.59;68.03
75617;BME280;64200;55.426;37.758;2023-09-30T00:53:03;99712.25;;;14.59;67.82
75617;BME280;64200;55.426;37.758;2023-09-30T00:58:04;99716.94;;;14.63;67.78
75617;BME280;64200;55.426;37.758;2023-09-30T01:03:05;99708.63;;;14.53;68.08
75617;BME280;64200;55.426;37.758;2023-09-30T01:08:06;99705.56;;;14.51;67.91
75617;BME280;64200;55.426;37.758;2023-09-30T01:13:07;99693.84;;;14.53;67.89
75617;BME280;64200;55.426;37.758;2023-09-30T01:18:07;99700.28;;;14.59;67.58
75617;BME280;64200;55.426;37.758;2023-09-30T01:23:08;99701.25;;;14.56;67.97
75617;BME280;64200;55.426;37.758;2023-09-30T01:28:12;99696.06;;;14.49;67.58
75617;BME280;64200;55.426;37.758;2023-09-30T01:33:14;99704.38;;;14.37;68.24
75617;BME280;64200;55.426;37.758;2023-09-30T01:38:19;99690.19;;;14.26;68.68
75617;BME280;64200;55.426;37.758;2023-09-30T01:43:20;99692.09;;;14.14;69.35
75617;BME280;64200;55.426;37.758;2023-09-30T01:48:20;99699.78;;;14.19;69.06
75617;BME280;64200;55.426;37.758;2023-09-30T01:53:21;99700.41;;;14.09;69.39
75617;BME280;64200;55.426;37.758;2023-09-30T01:58:22;99693.84;;;14.12;68.91
75617;BME280;64200;55.426;37.758;2023-09-30T02:03:22;99696.44;;;14.15;68.94
75617;BME280;64200;55.426;37.758;2023-09-30T02:08:23;99684.84;;;14.08;69.04
75617;BME280;64200;55.426;37.758;2023-09-30T02:13:24;99687.09;;;14.03;68.99
75617;BME280;64200;55.426;37.758;2023-09-30T02:18:24;99686.81;;;14.01;69.41
75617;BME280;64200;55.426;37.758;2023-09-30T02:23:25;99685.31;;;13.85;70.17
75617;BME280;64200;55.426;37.758;2023-09-30T02:28:25;99690.59;;;13.98;69.50
75617;BME280;64200;55.426;37.758;2023-09-30T02:33:26;99675.25;;;13.94;69.38
75617;BME280;64200;55.426;37.758;2023-09-30T02:38:27;99691.09;;;13.97;69.27
75617;BME280;64200;55.426;37.758;2023-09-30T02:43:28;99687.13;;;13.88;69.54
75617;BME280;64200;55.426;37.758;2023-09-30T02:48:29;99676.75;;;13.74;70.14
75617;BME280;64200;55.426;37.758;2023-09-30T02:53:29;99676.25;;;13.76;69.95
75617;BME280;64200;55.426;37.758;2023-09-30T02:58:30;99682.53;;;13.70;70.61
75617;BME280;64200;55.426;37.758;2023-09-30T03:03:31;99677.06;;;13.61;70.79
75617;BME280;64200;55.426;37.758;2023-09-30T03:08:32;99670.31;;;13.53;71.13
75617;BME280;64200;55.426;37.758;2023-09-30T03:13:33;99672.16;;;13.41;71.73
75617;BME280;64200;55.426;37.758;2023-09-30T03:18:33;99675.94;;;13.38;72.29
75617;BME280;64200;55.426;37.758;2023-09-30T03:23:34;99665.03;;;13.40;71.62
75617;BME280;64200;55.426;37.758;2023-09-30T03:28:38;99668.19;;;13.33;71.96
75617;BME280;64200;55.426;37.758;2023-09-30T03:33:39;99667.53;;;13.23;72.48
75617;BME280;64200;55.426;37.758;2023-09-30T03:38:39;99668.81;;;13.07;72.93
75617;BME280;64200;55.426;37.758;2023-09-30T03:43:40;99655.47;;;13.02;72.80
75617;BME280;64200;55.426;37.758;2023-09-30T03:48:43;99670.72;;;13.16;72.67
75617;BME280;64200;55.426;37.758;2023-09-30T03:53:45;99669.56;;;13.23;72.45
75617;BME280;64200;55.426;37.758;2023-09-30T03:58:45;99666.06;;;13.28;72.04
75617;BME280;64200;55.426;37.758;2023-09-30T04:03:48;99673.22;;;13.29;72.20
75617;BME280;64200;55.426;37.758;2023-09-30T04:08:50;99678.06;;;13.28;71.81
75617;BME280;64200;55.426;37.758;2023-09-30T04:13:50;99672.09;;;13.06;72.59
75617;BME280;64200;55.426;37.758;2023-09-30T04:18:51;99676.25;;;13.10;72.42
75617;BME280;64200;55.426;37.758;2023-09-30T04:23:51;99666.78;;;13.08;72.67
75617;BME280;64200;55.426;37.758;2023-09-30T04:28:52;99659.31;;;13.20;72.49
75617;BME280;64200;55.426;37.758;2023-09-30T04:33:53;99666.66;;;13.32;72.28
75617;BME280;64200;55.426;37.758;2023-09-30T04:38:54;99656.53;;;13.34;72.25
75617;BME280;64200;55.426;37.758;2023-09-30T04:43:54;99671.28;;;13.50;71.30
75617;BME280;64200;55.426;37.758;2023-09-30T04:48:54;99671.69;;;13.58;70.99
75617;BME280;64200;55.426;37.758;2023-09-30T04:53:55;99667.19;;;13.66;71.05
75617;BME280;64200;55.426;37.758;2023-09-30T04:58:55;99677.03;;;13.76;70.88
75617;BME280;64200;55.426;37.758;2023-09-30T05:03:56;99676.63;;;13.83;70.57
75617;BME280;64200;55.426;37.758;2023-09-30T05:08:57;99675.88;;;14.03;70.04
75617;BME280;64200;55.426;37.758;2023-09-30T05:13:58;99680.09;;;14.14;69.69
75617;BME280;64200;55.426;37.758;2023-09-30T05:18:59;99675.31;;;14.40;69.46
75617;BME280;64200;55.426;37.758;2023-09-30T05:24:00;99671.03;;;14.66;68.94
75617;BME280;64200;55.426;37.758;2023-09-30T05:29:00;99669.66;;;14.82;68.33
75617;BME280;64200;55.426;37.758;2023-09-30T05:34:01;99674.38;;;15.22;67.26
75617;BME280;64200;55.426;37.758;2023-09-30T05:39:02;99662.22;;;15.74;66.86
75617;BME280;64200;55.426;37.758;2023-09-30T05:44:04;99664.06;;;16.26;66.03
75617;BME280;64200;55.426;37.758;2023-09-30T05:49:04;99671.59;;;16.63;64.93
75617;BME280;64200;55.426;37.758;2023-09-30T05:54:10;99652.97;;;16.89;62.81
75617;BME280;64200;55.426;37.758;2023-09-30T05:59:10;99657.63;;;17.14;62.33
75617;BME280;64200;55.426;37.758;2023-09-30T06:04:12;99660.91;;;17.52;62.03
75617;BME280;64200;55.426;37.758;2023-09-30T06:09:12;99658.56;;;17.90;60.40
75617;BME280;64200;55.426;37.758;2023-09-30T06:14:13;99662.75;;;18.42;59.91
75617;BME280;64200;55.426;37.758;2023-09-30T06:19:14;99649.13;;;18.47;59.11
75617;BME280;64200;55.426;37.758;2023-09-30T06:24:15;99648.63;;;18.90;58.26
75617;BME280;64200;55.426;37.758;2023-09-30T06:29:15;99649.66;;;19.23;56.04
75617;BME280;64200;55.426;37.758;2023-09-30T06:34:16;99647.47;;;19.65;55.78
75617;BME280;64200;55.426;37.758;2023-09-30T06:39:17;99643.66;;;20.31;53.69
75617;BME280;64200;55.426;37.758;2023-09-30T06:44:17;99640.00;;;20.55;52.56
75617;BME280;64200;55.426;37.758;2023-09-30T06:49:18;99637.59;;;21.43;53.34
75617;BME280;64200;55.426;37.758;2023-09-30T06:54:18;99639.28;;;22.05;51.34
75617;BME280;64200;55.426;37.758;2023-09-30T06:59:19;99643.63;;;22.47;49.63
75617;BME280;64200;55.426;37.758;2023-09-30T07:04:19;99631.66;;;22.96;47.36
75617;BME280;64200;55.426;37.758;2023-09-30T07:09:21;99636.72;;;22.90;46.46
75617;BME280;64200;55.426;37.758;2023-09-30T07:14:22;99626.69;;;23.10;45.38
75617;BME280;64200;55.426;37.758;2023-09-30T07:19:22;99630.19;;;23.66;43.28
75617;BME280;64200;55.426;37.758;2023-09-30T07:24:23;99626.94;;;24.35;44.24
75617;BME280;64200;55.426;37.758;2023-09-30T07:29:23;99625.28;;;24.47;42.50
75617;BME280;64200;55.426;37.758;2023-09-30T07:34:24;99629.88;;;25.33;39.78
75617;BME280;64200;55.426;37.758;2023-09-30T07:39:24;99623.59;;;26.22;38.95
75617;BME280;64200;55.426;37.758;2023-09-30T07:44:25;99617.22;;;25.83;37.42
75617;BME280;64200;55.426;37.758;2023-09-30T07:49:25;99611.47;;;26.46;36.27
75617;BME280;64200;55.426;37.758;2023-09-30T07:54:27;99616.66;;;27.06;36.05
75617;BME280;64200;55.426;37.758;2023-09-30T07:59:28;99615.50;;;28.57;33.86
75617;BME280;64200;55.426;37.758;2023-09-30T08:04:28;99612.53;;;30.15;31.54
75617;BME280;64200;55.426;37.758;2023-09-30T08:09:30;99612.81;;;30.48;29.82
75617;BME280;64200;55.426;37.758;2023-09-30T08:14:30;99606.59;;;31.34;29.40
75617;BME280;64200;55.426;37.758;2023-09-30T08:19:31;99609.75;;;32.03;27.40
75617;BME280;64200;55.426;37.758;2023-09-30T08:24:31;99598.41;;;32.63;26.43
75617;BME280;64200;55.426;37.758;2023-09-30T08:29:35;99600.84;;;31.99;26.17
75617;BME280;64200;55.426;37.758;2023-09-30T08:34:38;99587.97;;;32.12;25.56
75617;BME280;64200;55.426;37.758;2023-09-30T08:39:39;99588.63;;;34.00;23.63
75617;BME280;64200;55.426;37.758;2023-09-30T08:44:46;99581.66;;;33.79;22.81
75617;BME280;64200;55.426;37.758;2023-09-30T08:49:49;99588.09;;;35.23;22.02
75617;BME280;64200;55.426;37.758;2023-09-30T08:54:55;99586.00;;;35.81;20.86
75617;BME280;64200;55.426;37.758;2023-09-30T08:59:55;99583.03;;;35.79;19.78
75617;BME280;64200;55.426;37.758;2023-09-30T09:04:58;99567.31;;;35.84;19.50
75617;BME280;64200;55.426;37.758;2023-09-30T09:10:15;99566.81;;;33.00;21.66
75617;BME280;64200;55.426;37.758;2023-09-30T09:15:24;99574.06;;;34.63;19.87
75617;BME280;64200;55.426;37.758;2023-09-30T09:20:25;99570.63;;;34.53;20.57
75617;BME280;64200;55.426;37.758;2023-09-30T09:25:26;99560.72;;;34.84;20.62
75617;BME280;64200;55.426;37.758;2023-09-30T09:30:27;99577.72;;;34.12;19.75
75617;BME280;64200;55.426;37.758;2023-09-30T09:35:29;99553.53;;;34.99;18.93
75617;BME280;64200;55.426;37.758;2023-09-30T09:40:38;99555.00;;;37.09;17.31
75617;BME280;64200;55.426;37.758;2023-09-30T09:45:41;99550.53;;;35.39;18.27
75617;BME280;64200;55.426;37.758;2023-09-30T09:50:43;99551.81;;;35.35;19.16
75617;BME280;64200;55.426;37.758;2023-09-30T09:55:47;99562.22;;;38.48;16.25
75617;BME280;64200;55.426;37.758;2023-09-30T10:00:47;99548.28;;;38.64;15.41
75617;BME280;64200;55.426;37.758;2023-09-30T10:05:48;99542.94;;;32.76;19.66
75617;BME280;64200;55.426;37.758;2023-09-30T10:10:49;99536.63;;;35.95;18.56
75617;BME280;64200;55.426;37.758;2023-09-30T10:15:50;99529.91;;;37.34;16.53
75617;BME280;64200;55.426;37.758;2023-09-30T10:20:50;99530.47;;;31.71;22.20
75617;BME280;64200;55.426;37.758;2023-09-30T10:25:53;99525.72;;;37.55;18.08
75617;BME280;64200;55.426;37.758;2023-09-30T10:31:18;99530.09;;;39.68;14.05
75617;BME280;64200;55.426;37.758;2023-09-30T10:36:37;99522.56;;;37.67;15.96
75617;BME280;64200;55.426;37.758;2023-09-30T10:46:45;99513.88;;;38.41;15.47
75617;BME280;64200;55.426;37.758;2023-09-30T10:51:46;99512.91;;;40.01;14.03
75617;BME280;64200;55.426;37.758;2023-09-30T10:56:47;99492.53;;;40.27;13.83
75617;BME280;64200;55.426;37.758;2023-09-30T11:01:49;99498.31;;;41.02;13.01
75617;BME280;64200;55.426;37.758;2023-09-30T11:06:50;99482.00;;;43.22;11.26
75617;BME280;64200;55.426;37.758;2023-09-30T11:11:52;99483.00;;;40.51;13.16
75617;BME280;64200;55.426;37.758;2023-09-30T11:16:55;99475.81;;;41.67;12.31
75617;BME280;64200;55.426;37.758;2023-09-30T11:21:56;99476.03;;;41.17;11.87
75617;BME280;64200;55.426;37.758;2023-09-30T11:26:58;99450.91;;;39.14;13.48
75617;BME280;64200;55.426;37.758;2023-09-30T11:31:59;99455.19;;;40.76;12.41
75617;BME280;64200;55.426;37.758;2023-09-30T11:37:02;99445.75;;;41.65;11.96
75617;BME280;64200;55.426;37.758;2023-09-30T11:42:14;99449.03;;;40.92;11.97
75617;BME280;64200;55.426;37.758;2023-09-30T11:47:15;99442.38;;;41.76;11.97
75617;BME280;64200;55.426;37.758;2023-09-30T11:52:26;99445.94;;;41.42;11.98
75617;BME280;64200;55.426;37.758;2023-09-30T11:57:26;99442.47;;;42.15;11.99
75617;BME280;64200;55.426;37.758;2023-09-30T12:02:27;99443.06;;;43.19;10.37
75617;BME280;64200;55.426;37.758;2023-09-30T12:07:28;99438.78;;;42.86;10.28
75617;BME280;64200;55.426;37.758;2023-09-30T12:12:29;99427.72;;;39.40;13.35
75617;BME280;64200;55.426;37.758;2023-09-30T12:17:29;99422.47;;;40.55;11.86
75617;BME280;64200;55.426;37.758;2023-09-30T12:22:30;99411.25;;;39.73;12.79
75617;BME280;64200;55.426;37.758;2023-09-30T12:27:30;99411.69;;;41.47;11.79
75617;BME280;64200;55.426;37.758;2023-09-30T12:32:31;99408.88;;;40.66;11.69
75617;BME280;64200;55.426;37.758;2023-09-30T12:37:31;99410.31;;;38.78;13.09
75617;BME280;64200;55.426;37.758;2023-09-30T12:42:32;99407.03;;;38.68;13.69
75617;BME280;64200;55.426;37.758;2023-09-30T12:47:37;99407.66;;;38.86;13.34
75617;BME280;64200;55.426;37.758;2023-09-30T12:52:38;99385.22;;;35.25;15.95
75617;BME280;64200;55.426;37.758;2023-09-30T12:57:39;99379.84;;;31.61;18.71
75617;BME280;64200;55.426;37.758;2023-09-30T13:02:39;99366.94;;;30.10;21.68
75617;BME280;64200;55.426;37.758;2023-09-30T13:07:40;99362.38;;;29.66;21.92
75617;BME280;64200;55.426;37.758;2023-09-30T13:12:41;99348.06;;;28.88;23.70
75617;BME280;64200;55.426;37.758;2023-09-30T13:17:42;99345.25;;;28.31;24.87
75617;BME280;64200;55.426;37.758;2023-09-30T13:22:43;99354.56;;;27.85;25.62
75617;BME280;64200;55.426;37.758;2023-09-30T13:27:44;99341.31;;;26.82;26.99
75617;BME280;64200;55.426;37.758;2023-09-30T13:32:44;99341.38;;;26.57;27.81
75617;BME280;64200;55.426;37.758;2023-09-30T13:37:45;99344.53;;;26.26;28.30
75617;BME280;64200;55.426;37.758;2023-09-30T13:42:46;99331.81;;;26.20;27.94
75617;BME280;64200;55.426;37.758;2023-09-30T13:47:47;99323.19;;;26.45;27.61
75617;BME280;64200;55.426;37.758;2023-09-30T13:52:49;99313.25;;;26.46;27.44
75617;BME280;64200;55.426;37.758;2023-09-30T13:57:49;99325.69;;;26.23;28.90
75617;BME280;64200;55.426;37.758;2023-09-30T14:02:50;99322.63;;;25.96;28.86
75617;BME280;64200;55.426;37.758;2023-09-30T14:07:51;99313.31;;;25.63;29.37
75617;BME280;64200;55.426;37.758;2023-09-30T14:12:52;99308.38;;;25.22;30.80
75617;BME280;64200;55.426;37.758;2023-09-30T14:17:52;99319.03;;;25.22;30.06
75617;BME280;64200;55.426;37.758;2023-09-30T14:22:53;99304.72;;;24.89;30.78
75617;BME280;64200;55.426;37.758;2023-09-30T14:27:55;99299.84;;;24.59;31.25
75617;BME280;64200;55.426;37.758;2023-09-30T14:32:56;99290.56;;;24.27;32.38
75617;BME280;64200;55.426;37.758;2023-09-30T14:37:57;99307.09;;;23.98;33.08
75617;BME280;64200;55.426;37.758;2023-09-30T14:42:58;99299.84;;;23.81;33.33
75617;BME280;64200;55.426;37.758;2023-09-30T14:47:59;99299.28;;;23.60;33.81
75617;BME280;64200;55.426;37.758;2023-09-30T14:52:59;99303.38;;;23.36;34.61
75617;BME280;64200;55.426;37.758;2023-09-30T14:58:00;99297.09;;;23.22;34.68
75617;BME280;64200;55.426;37.758;2023-09-30T15:03:00;99294.56;;;23.10;34.85
75617;BME280;64200;55.426;37.758;2023-09-30T15:08:01;99297.34;;;22.95;35.13
75617;BME280;64200;55.426;37.758;2023-09-30T15:13:02;99293.50;;;22.56;36.21
75617;BME280;64200;55.426;37.758;2023-09-30T15:18:05;99286.50;;;22.28;37.13
75617;BME280;64200;55.426;37.758;2023-09-30T15:23:06;99298.72;;;22.15;37.26
75617;BME280;64200;55.426;37.758;2023-09-30T15:28:06;99289.66;;;21.96;37.61
75617;BME280;64200;55.426;37.758;2023-09-30T15:33:08;99284.25;;;21.84;38.16
75617;BME280;64200;55.426;37.758;2023-09-30T15:38:08;99287.09;;;21.63;38.65
75617;BME280;64200;55.426;37.758;2023-09-30T15:43:09;99280.94;;;21.51;39.13
75617;BME280;64200;55.426;37.758;2023-09-30T15:48:10;99277.84;;;21.49;38.93
75617;BME280;64200;55.426;37.758;2023-09-30T15:53:15;99273.94;;;21.39;39.05
75617;BME280;64200;55.426;37.758;2023-09-30T15:58:16;99281.38;;;21.08;40.83
75617;BME280;64200;55.426;37.758;2023-09-30T16:03:17;99280.75;;;20.88;41.37
75617;BME280;64200;55.426;37.758;2023-09-30T16:08:17;99280.97;;;20.77;41.66
75617;BME280;64200;55.426;37.758;2023-09-30T16:13:20;99271.06;;;20.57;42.31
75617;BME280;64200;55.426;37.758;2023-09-30T16:18:21;99272.81;;;20.46;42.50
75617;BME280;64200;55.426;37.758;2023-09-30T16:23:21;99267.03;;;20.39;42.96
75617;BME280;64200;55.426;37.758;2023-09-30T16:28:22;99270.94;;;20.22;43.74
75617;BME280;64200;55.426;37.758;2023-09-30T16:33:22;99267.13;;;20.06;43.95
75617;BME280;64200;55.426;37.758;2023-09-30T16:38:25;99263.94;;;19.96;44.86
75617;BME280;64200;55.426;37.758;2023-09-30T16:43:28;99268.56;;;19.80;44.72
75617;BME280;64200;55.426;37.758;2023-09-30T16:48:29;99264.16;;;19.66;45.34
75617;BME280;64200;55.426;37.758;2023-09-30T16:53:30;99259.13;;;19.59;45.73
75617;BME280;64200;55.426;37.758;2023-09-30T16:58:30;99251.72;;;19.56;45.81
75617;BME280;64200;55.426;37.758;2023-09-30T17:03:34;99245.28;;;19.23;47.05
75617;BME280;64200;55.426;37.758;2023-09-30T17:08:34;99245.34;;;19.36;46.77
75617;BME280;64200;55.426;37.758;2023-09-30T17:13:35;99230.69;;;19.19;47.39
75617;BME280;64200;55.426;37.758;2023-09-30T17:18:37;99232.41;;;19.08;47.47
75617;BME280;64200;55.426;37.758;2023-09-30T17:23:37;99224.59;;;18.95;48.43
75617;BME280;64200;55.426;37.758;2023-09-30T17:28:38;99214.34;;;18.73;48.51
75617;BME280;64200;55.426;37.758;2023-09-30T17:33:39;99225.63;;;18.73;49.26
75617;BME280;64200;55.426;37.758;2023-09-30T17:38:41;99220.06;;;18.68;49.26
75617;BME280;64200;55.426;37.758;2023-09-30T17:43:42;99216.38;;;18.54;49.88
75617;BME280;64200;55.426;37.758;2023-09-30T17:48:43;99204.53;;;18.36;50.58
75617;BME280;64200;55.426;37.758;2023-09-30T17:53:50;99207.34;;;18.36;50.68
75617;BME280;64200;55.426;37.758;2023-09-30T17:58:51;99197.66;;;18.32;50.75
75617;BME280;64200;55.426;37.758;2023-09-30T18:03:53;99189.78;;;18.24;51.11
75617;BME280;64200;55.426;37.758;2023-09-30T18:08:54;99183.38;;;18.24;51.29
75617;BME280;64200;55.426;37.758;2023-09-30T18:13:54;99189.91;;;18.13;51.36
75617;BME280;64200;55.426;37.758;2023-09-30T18:18:55;99184.69;;;17.98;51.76
75617;BME280;64200;55.426;37.758;2023-09-30T18:23:56;99172.97;;;17.88;52.36
75617;BME280;64200;55.426;37.758;2023-09-30T18:28:57;99168.19;;;17.78;52.65
75617;BME280;64200;55.426;37.758;2023-09-30T18:33:57;99167.22;;;17.75;52.99
75617;BME280;64200;55.426;37.758;2023-09-30T18:38:58;99177.22;;;17.70;52.97
75617;BME280;64200;55.426;37.758;2023-09-30T18:43:58;99172.84;;;17.75;52.62
75617;BME280;64200;55.426;37.758;2023-09-30T18:48:59;99171.97;;;17.55;53.50
75617;BME280;64200;55.426;37.758;2023-09-30T18:54:01;99154.94;;;17.42;53.84
75617;BME280;64200;55.426;37.758;2023-09-30T18:59:02;99161.88;;;17.41;54.09
75617;BME280;64200;55.426;37.758;2023-09-30T19:04:04;99161.06;;;17.46;53.66
75617;BME280;64200;55.426;37.758;2023-09-30T19:09:05;99158.53;;;17.43;53.95
75617;BME280;64200;55.426;37.758;2023-09-30T19:14:07;99145.53;;;17.34;54.25
75617;BME280;64200;55.426;37.758;2023-09-30T19:19:07;99143.81;;;17.25;54.36
75617;BME280;64200;55.426;37.758;2023-09-30T19:24:08;99135.41;;;17.19;54.94
75617;BME280;64200;55.426;37.758;2023-09-30T19:29:09;99135.25;;;17.06;55.39
75617;BME280;64200;55.426;37.758;2023-09-30T19:34:09;99134.56;;;16.94;55.65
75617;BME280;64200;55.426;37.758;2023-09-30T19:39:11;99136.81;;;17.01;55.52
75617;BME280;64200;55.426;37.758;2023-09-30T19:44:13;99134.78;;;16.96;55.54
75617;BME280;64200;55.426;37.758;2023-09-30T19:49:13;99129.84;;;17.08;55.48
75617;BME280;64200;55.426;37.758;2023-09-30T19:54:16;99135.56;;;16.97;55.83
75617;BME280;64200;55.426;37.758;2023-09-30T19:59:17;99134.78;;;16.96;56.01
75617;BME280;64200;55.426;37.758;2023-09-30T20:04:18;99137.56;;;17.02;55.79
75617;BME280;64200;55.426;37.758;2023-09-30T20:09:20;99123.06;;;16.92;55.84
75617;BME280;64200;55.426;37.758;2023-09-30T20:14:22;99125.00;;;17.09;55.49
75617;BME280;64200;55.426;37.758;2023-09-30T20:19:23;99117.22;;;17.20;55.14
75617;BME280;64200;55.426;37.758;2023-09-30T20:24:24;99120.78;;;17.21;55.16
75617;BME280;64200;55.426;37.758;2023-09-30T20:29:24;99115.44;;;17.17;55.18
75617;BME280;64200;55.426;37.758;2023-09-30T20:34:25;99111.66;;;17.09;55.59
75617;BME280;64200;55.426;37.758;2023-09-30T20:39:25;99102.72;;;17.05;55.74
75617;BME280;64200;55.426;37.758;2023-09-30T20:44:28;99105.56;;;16.99;56.22
75617;BME280;64200;55.426;37.758;2023-09-30T20:49:29;99098.44;;;16.98;56.09
75617;BME280;64200;55.426;37.758;2023-09-30T20:54:30;99096.66;;;16.95;56.41
75617;BME280;64200;55.426;37.758;2023-09-30T20:59:34;99102.03;;;16.93;56.40
75617;BME280;64200;55.426;37.758;2023-09-30T21:04:35;99092.00;;;16.98;56.17
75617;BME280;64200;55.426;37.758;2023-09-30T21:09:37;99086.34;;;17.03;55.98
75617;BME280;64200;55.426;37.758;2023-09-30T21:14:38;99080.22;;;16.99;56.06
75617;BME280;64200;55.426;37.758;2023-09-30T21:19:39;99065.09;;;17.02;55.92
75617;BME280;64200;55.426;37.758;2023-09-30T21:24:39;99067.66;;;17.00;56.07
75617;BME280;64200;55.426;37.758;2023-09-30T21:29:40;99063.31;;;16.99;56.08
75617;BME280;64200;55.426;37.758;2023-09-30T21:34:40;99066.59;;;17.03;55.92
75617;BME280;64200;55.426;37.758;2023-09-30T21:39:41;99079.75;;;16.95;56.24
75617;BME280;64200;55.426;37.758;2023-09-30T21:44:42;99065.50;;;16.82;56.61
75617;BME280;64200;55.426;37.758;2023-09-30T21:49:42;99074.19;;;16.84;56.48
75617;BME280;64200;55.426;37.758;2023-09-30T21:54:42;99058.28;;;16.86;56.31
75617;BME280;64200;55.426;37.758;2023-09-30T21:59:43;99056.09;;;16.68;57.05
75617;BME280;64200;55.426;37.758;2023-09-30T22:04:44;99039.47;;;16.70;57.09
75617;BME280;64200;55.426;37.758;2023-09-30T22:09:45;99044.56;;;16.72;56.98
75617;BME280;64200;55.426;37.758;2023-09-30T22:14:46;99034.16;;;16.61;57.09
75617;BME280;64200;55.426;37.758;2023-09-30T22:19:46;99036.50;;;16.57;57.32
75617;BME280;64200;55.426;37.758;2023-09-30T22:24:47;99020.19;;;16.44;57.76
75617;BME280;64200;55.426;37.758;2023-09-30T22:29:48;99035.75;;;16.50;57.71
75617;BME280;64200;55.426;37.758;2023-09-30T22:34:49;99024.81;;;16.41;57.96
75617;BME280;64200;55.426;37.758;2023-09-30T22:39:49;99016.16;;;16.39;58.01
75617;BME280;64200;55.426;37.758;2023-09-30T22:44:50;99019.44;;;16.43;57.81
75617;BME280;64200;55.426;37.758;2023-09-30T22:49:52;99010.31;;;16.31;58.32
75617;BME280;64200;55.426;37.758;2023-09-30T22:54:52;99010.84;;;16.30;58.28
75617;BME280;64200;55.426;37.758;2023-09-30T22:59:53;99004.19;;;16.27;58.22
75617;BME280;64200;55.426;37.758;2023-09-30T23:04:53;99012.84;;;16.35;57.90
75617;BME280;64200;55.426;37.758;2023-09-30T23:09:55;98995.25;;;16.23;58.18
75617;BME280;64200;55.426;37.758;2023-09-30T23:14:58;98997.88;;;16.15;58.54
75617;BME280;64200;55.426;37.758;2023-09-30T23:19:59;99001.72;;;16.12;58.52
75617;BME280;64200;55.426;37.758;2023-09-30T23:24:59;98983.81;;;16.15;58.60
75617;BME280;64200;55.426;37.758;2023-09-30T23:29:59;98984.81;;;16.18;58.38
75617;BME280;64200;55.426;37.758;2023-09-30T23:35:17;98985.84;;;16.15;58.42
75617;BME280;64200;55.426;37.758;2023-09-30T23:40:20;98979.50;;;16.03;58.55
75617;BME280;64200;55.426;37.758;2023-09-30T23:45:23;98987.16;;;16.14;58.56
75617;BME280;64200;55.426;37.758;2023-09-30T23:50:26;98977.88;;;16.19;58.20
75617;BME280;64200;55.426;37.758;2023-09-30T23:55:30;98984.59;;;16.10;58.52
